Time;durP1;ratioP1;P1;durP2;ratioP2;P2;SDS_P1;SDS_P2;PMS_P1;PMS_P2;Temp;Humidity;BMP_temperature;BMP_pressure;BME280_temperature;BME280_humidity;BME280_pressure;Samples;Min_cycle;Max_cycle;Signal;HPM_P1;HPM_P2
2024/03/18 02:01:36;;;;;;;18.30;16.80;;;9.80;99.90;;;;;;4848123;29;20347;-79
2024/03/18 02:33:35;;;;;;;;;;;;;;;;;;;;;
2024/03/18 02:40:43;;;;;;;9.20;8.40;;;9.90;99.90;;;;;;4789419;29;20294;-79
2024/03/18 03:56:30;;;;;;;17.43;16.13;;;9.70;99.90;;;;;;4807706;29;20223;-80
2024/03/18 03:58:56;;;;;;;11.30;10.30;;;9.60;99.90;;;;;;4833793;29;20749;-82
2024/03/18 04:01:23;;;;;;;9.90;8.83;;;9.60;99.90;;;;;;4967420;28;20276;-81
2024/03/18 04:03:50;;;;;;;10.60;9.50;;;9.60;99.90;;;;;;5006588;28;20203;-82
2024/03/18 04:06:17;;;;;;;12.93;11.40;;;9.60;99.90;;;;;;5013662;28;20205;-82
2024/03/18 04:08:44;;;;;;;10.77;9.77;;;9.50;99.90;;;;;;5012541;28;20228;-82
2024/03/18 04:11:10;;;;;;;11.50;10.47;;;9.50;99.90;;;;;;5005600;28;20632;-82
2024/03/18 04:13:39;;;;;;;10.10;8.17;;;9.40;99.90;;;;;;5009821;28;20197;-80
2024/03/18 04:16:06;;;;;;;13.93;12.73;;;9.40;99.90;;;;;;5012138;28;20217;-80
2024/03/18 04:18:35;;;;;;;9.73;8.57;;;9.40;99.90;;;;;;5014114;28;20258;-80
2024/03/18 04:21:03;;;;;;;10.60;8.20;;;9.50;99.90;;;;;;5006423;28;20280;-81
2024/03/18 04:23:32;;;;;;;12.77;11.50;;;9.50;99.90;;;;;;5002419;28;20680;-81
2024/03/18 04:26:00;;;;;;;12.10;9.37;;;9.50;99.90;;;;;;5007970;28;20236;-79
2024/03/18 04:28:28;;;;;;;9.97;8.50;;;9.50;99.90;;;;;;5005711;28;20284;-81
2024/03/18 04:30:56;;;;;;;10.17;9.17;;;9.50;99.90;;;;;;4996314;28;20277;-80
2024/03/18 04:33:23;;;;;;;13.07;11.80;;;9.50;99.90;;;;;;5012132;28;20238;-79
2024/03/18 04:35:50;;;;;;;17.00;15.43;;;9.50;99.90;;;;;;5008236;28;20197;-78
2024/03/18 04:38:17;;;;;;;9.50;8.53;;;9.50;99.90;;;;;;5002807;28;20258;-78
2024/03/18 04:40:43;;;;;;;9.30;7.27;;;9.50;99.90;;;;;;5000135;28;20659;-78
2024/03/18 04:43:10;;;;;;;7.90;7.13;;;9.50;99.90;;;;;;5009841;28;20216;-78
2024/03/18 04:45:38;;;;;;;9.23;8.40;;;9.50;99.90;;;;;;4996140;28;20201;-78
2024/03/18 04:48:07;;;;;;;7.60;6.80;;;9.50;99.90;;;;;;5003606;28;20193;-78
2024/03/18 04:50:34;;;;;;;10.97;10.03;;;9.50;99.90;;;;;;5004422;28;20193;-78
2024/03/18 04:53:00;;;;;;;9.50;8.03;;;9.50;99.90;;;;;;4998502;28;20228;-78
2024/03/18 04:55:27;;;;;;;12.20;10.97;;;9.50;99.90;;;;;;5008702;28;20205;-77
2024/03/18 04:57:55;;;;;;;12.03;10.83;;;9.50;99.90;;;;;;4998862;28;20254;-78
2024/03/18 05:00:25;;;;;;;10.70;9.70;;;9.50;99.90;;;;;;5000897;28;20719;-77
2024/03/18 05:02:52;;;;;;;9.90;8.97;;;9.50;99.90;;;;;;5016404;28;20216;-78
2024/03/18 05:05:20;;;;;;;12.50;11.43;;;9.50;99.90;;;;;;5000641;28;20661;-77
2024/03/18 05:07:48;;;;;;;9.53;8.53;;;9.50;99.90;;;;;;4999956;28;20229;-78
2024/03/18 05:10:16;;;;;;;8.03;7.23;;;9.40;99.90;;;;;;5007740;28;20204;-78
2024/03/18 05:12:43;;;;;;;23.40;21.30;;;9.40;99.90;;;;;;5004613;28;20308;-78
2024/03/18 05:15:10;;;;;;;10.97;9.93;;;9.50;99.90;;;;;;4999138;28;20225;-78
2024/03/18 05:17:37;;;;;;;15.60;14.37;;;9.50;99.90;;;;;;5000521;28;20221;-78
2024/03/18 05:20:04;;;;;;;15.70;14.23;;;9.50;99.90;;;;;;5005866;28;20204;-78
2024/03/18 05:22:33;;;;;;;10.47;9.37;;;9.50;99.90;;;;;;4997800;28;20217;-78
2024/03/18 05:25:05;;;;;;;15.60;14.47;;;9.50;99.90;;;;;;4997083;28;20240;-78
2024/03/18 05:27:32;;;;;;;10.30;9.13;;;9.50;99.90;;;;;;4997851;28;20193;-78
2024/03/18 05:30:00;;;;;;;11.73;10.73;;;9.50;99.90;;;;;;5006250;28;20227;-77
2024/03/18 05:32:26;;;;;;;11.17;10.17;;;9.60;99.90;;;;;;4995960;28;20226;-77
2024/03/18 05:34:53;;;;;;;9.20;8.30;;;9.60;99.90;;;;;;5003484;28;20252;-78
2024/03/18 05:37:20;;;;;;;8.90;8.00;;;9.60;99.90;;;;;;4998373;28;20233;-78
2024/03/18 05:39:48;;;;;;;14.03;12.97;;;9.60;99.90;;;;;;5000831;28;20197;-78
2024/03/18 05:42:15;;;;;;;15.20;14.10;;;9.60;99.90;;;;;;4996474;28;20217;-78
2024/03/18 05:44:41;;;;;;;18.97;17.53;;;9.60;99.90;;;;;;5004531;28;20240;-78
2024/03/18 05:47:08;;;;;;;17.90;16.63;;;9.60;99.90;;;;;;5010938;28;20217;-77
2024/03/18 05:49:35;;;;;;;10.77;9.00;;;9.60;99.90;;;;;;4995759;28;20221;-78
2024/03/18 05:52:03;;;;;;;9.23;8.33;;;9.60;99.90;;;;;;5003530;28;20718;-78
2024/03/18 05:54:30;;;;;;;8.33;7.63;;;9.60;99.90;;;;;;4993961;28;20204;-77
2024/03/18 05:56:58;;;;;;;8.60;7.80;;;9.60;99.90;;;;;;4999246;28;20216;-79
2024/03/18 05:59:25;;;;;;;8.67;7.77;;;9.60;99.90;;;;;;5001228;28;20209;-78
2024/03/18 06:01:52;;;;;;;8.40;7.20;;;9.60;99.90;;;;;;5009633;28;20287;-78
2024/03/18 06:04:20;;;;;;;6.67;6.07;;;9.70;99.90;;;;;;5000634;28;20220;-78
2024/03/18 06:06:46;;;;;;;6.90;5.93;;;9.70;99.90;;;;;;4995744;28;20200;-78
2024/03/18 06:09:13;;;;;;;7.07;6.47;;;9.70;99.90;;;;;;5003646;28;20735;-78
2024/03/18 06:11:40;;;;;;;8.97;8.17;;;9.70;99.90;;;;;;4992932;28;20217;-78
2024/03/18 06:14:10;;;;;;;7.70;6.90;;;9.70;99.90;;;;;;5012029;28;20204;-77
2024/03/18 06:16:37;;;;;;;9.90;9.00;;;9.70;99.90;;;;;;5002613;28;20267;-78
2024/03/18 06:19:05;;;;;;;14.13;12.93;;;9.70;99.90;;;;;;4999251;28;20371;-78
2024/03/18 06:21:39;;;;;;;11.30;10.30;;;9.70;99.90;;;;;;5008757;28;20228;-78
2024/03/18 06:24:07;;;;;;;11.03;9.93;;;9.70;99.90;;;;;;4998970;28;20195;-78
2024/03/18 06:26:33;;;;;;;8.90;7.57;;;9.70;99.90;;;;;;5001779;28;20190;-78
2024/03/18 06:29:00;;;;;;;10.67;9.67;;;9.70;99.90;;;;;;4996128;28;20209;-78
2024/03/18 06:31:29;;;;;;;9.80;8.80;;;9.70;99.90;;;;;;5010198;28;20225;-78
2024/03/18 06:33:56;;;;;;;15.80;14.43;;;9.70;99.90;;;;;;5000354;28;20259;-78
2024/03/18 06:36:22;;;;;;;16.37;15.17;;;9.80;99.90;;;;;;5000251;28;20205;-78
2024/03/18 06:38:49;;;;;;;16.70;15.50;;;9.80;99.90;;;;;;5003750;28;20224;-78
2024/03/18 06:41:16;;;;;;;17.10;15.90;;;9.80;99.90;;;;;;5002428;28;20224;-78
2024/03/18 06:43:43;;;;;;;16.53;15.37;;;9.80;99.90;;;;;;5004101;28;20197;-78
2024/03/18 06:46:10;;;;;;;16.57;15.43;;;9.80;99.90;;;;;;5001885;28;20198;-78
2024/03/18 06:48:38;;;;;;;17.53;16.03;;;9.80;99.90;;;;;;5014179;28;20292;-78
2024/03/18 06:51:05;;;;;;;16.00;14.80;;;9.90;99.90;;;;;;5005838;28;20190;-78
2024/03/18 06:53:32;;;;;;;17.37;15.97;;;9.90;99.90;;;;;;5016564;28;20500;-78
2024/03/18 06:56:01;;;;;;;19.33;17.80;;;9.90;99.90;;;;;;5009628;28;20212;-78
2024/03/18 06:58:28;;;;;;;17.77;15.93;;;10.00;99.90;;;;;;5005627;28;20222;-80
2024/03/18 07:00:56;;;;;;;17.83;16.60;;;10.00;99.90;;;;;;5009942;28;20216;-79
2024/03/18 07:03:22;;;;;;;16.23;15.03;;;10.00;99.90;;;;;;5004521;28;20212;-79
2024/03/18 07:05:50;;;;;;;17.03;15.73;;;10.00;99.90;;;;;;5008010;28;20205;-79
2024/03/18 07:08:17;;;;;;;16.57;15.47;;;10.00;99.90;;;;;;4997900;28;20642;-79
2024/03/18 07:10:44;;;;;;;18.07;16.67;;;10.00;99.90;;;;;;5001540;28;20673;-79
2024/03/18 07:13:11;;;;;;;17.80;16.60;;;10.00;99.90;;;;;;5000677;28;20717;-79
2024/03/18 07:15:38;;;;;;;17.23;16.07;;;10.10;99.90;;;;;;4998514;28;20740;-79
2024/03/18 07:18:05;;;;;;;16.67;15.47;;;10.10;99.90;;;;;;5008661;28;20220;-79
2024/03/18 07:20:32;;;;;;;17.87;16.47;;;10.10;99.90;;;;;;4999251;28;20695;-79
2024/03/18 07:23:00;;;;;;;16.90;15.63;;;10.10;99.90;;;;;;5005502;28;20700;-79
2024/03/18 07:25:27;;;;;;;16.97;15.70;;;10.10;99.90;;;;;;5008193;28;20674;-79
2024/03/18 07:27:54;;;;;;;16.17;14.97;;;10.10;99.90;;;;;;5006208;28;20195;-79
2024/03/18 07:30:21;;;;;;;16.73;15.53;;;10.20;99.90;;;;;;5005962;28;20209;-79
2024/03/18 07:32:48;;;;;;;16.47;15.20;;;10.10;99.90;;;;;;4998697;28;20232;-79
2024/03/18 07:35:15;;;;;;;16.70;15.60;;;10.10;99.90;;;;;;5006208;28;20200;-79
2024/03/18 07:37:42;;;;;;;16.57;15.37;;;10.20;99.90;;;;;;4996878;28;20222;-78
2024/03/18 07:40:12;;;;;;;16.97;15.57;;;10.20;99.90;;;;;;5005890;28;20284;-79
2024/03/18 07:42:40;;;;;;;16.40;15.20;;;10.20;99.90;;;;;;5007925;28;20778;-79
2024/03/18 07:45:08;;;;;;;16.57;15.23;;;10.30;99.90;;;;;;5003724;28;20206;-79
2024/03/18 07:47:35;;;;;;;16.37;15.27;;;10.30;99.90;;;;;;5004360;28;20197;-79
2024/03/18 07:50:04;;;;;;;17.20;16.00;;;10.30;99.90;;;;;;5005744;28;20206;-79
2024/03/18 07:52:31;;;;;;;15.90;14.80;;;10.40;99.90;;;;;;5009402;28;20235;-79
2024/03/18 07:55:00;;;;;;;16.33;15.13;;;10.40;99.90;;;;;;5009466;28;20205;-79
2024/03/18 07:57:28;;;;;;;16.10;14.80;;;10.50;99.90;;;;;;5014029;28;20236;-79
2024/03/18 07:59:55;;;;;;;16.10;14.90;;;10.50;99.90;;;;;;5008691;28;20222;-79
2024/03/18 08:02:22;;;;;;;14.73;13.67;;;10.60;99.90;;;;;;5014939;28;20227;-79
2024/03/18 08:04:50;;;;;;;16.20;15.07;;;10.60;99.90;;;;;;5010676;28;20213;-79
2024/03/18 08:07:18;;;;;;;15.57;14.17;;;10.70;99.90;;;;;;5005134;28;20234;-80
2024/03/18 08:09:45;;;;;;;14.97;13.97;;;10.70;99.90;;;;;;4997921;28;20263;-79
2024/03/18 08:12:12;;;;;;;14.57;13.43;;;10.70;99.90;;;;;;5007937;28;20277;-79
2024/03/18 08:14:42;;;;;;;13.57;12.47;;;10.70;99.90;;;;;;5002751;28;20227;-79
2024/03/18 08:17:10;;;;;;;16.63;15.33;;;10.70;99.90;;;;;;5007825;28;20806;-78
2024/03/18 08:19:37;;;;;;;16.17;15.00;;;10.60;99.90;;;;;;5003971;28;20232;-79
2024/03/18 08:22:04;;;;;;;16.20;15.07;;;10.60;99.90;;;;;;5006906;28;20247;-80
2024/03/18 08:24:31;;;;;;;16.17;15.07;;;10.60;99.90;;;;;;5004416;28;20208;-79
2024/03/18 08:26:58;;;;;;;16.30;15.10;;;10.60;99.90;;;;;;5013915;28;20192;-81
2024/03/18 08:29:27;;;;;;;14.90;13.90;;;10.60;99.90;;;;;;5009515;28;20710;-81
2024/03/18 08:31:55;;;;;;;15.20;14.10;;;10.70;99.90;;;;;;5010756;28;20307;-81
2024/03/18 08:34:22;;;;;;;15.60;14.40;;;10.70;99.90;;;;;;5008730;28;20296;-82
2024/03/18 08:36:49;;;;;;;14.97;14.00;;;10.70;99.90;;;;;;5009242;28;20197;-79
2024/03/18 08:39:16;;;;;;;16.10;14.50;;;10.70;99.90;;;;;;4999792;28;20214;-79
2024/03/18 08:41:44;;;;;;;16.13;14.90;;;10.80;99.90;;;;;;5003066;28;20208;-79
2024/03/18 08:44:11;;;;;;;15.90;14.50;;;10.70;99.90;;;;;;4999081;28;20247;-78
2024/03/18 08:46:40;;;;;;;14.90;13.90;;;10.80;99.90;;;;;;5008265;28;20197;-79
2024/03/18 08:49:08;;;;;;;17.57;16.07;;;10.80;99.90;;;;;;4998784;28;20185;-79
2024/03/18 08:51:35;;;;;;;16.60;15.10;;;10.80;99.90;;;;;;4993704;28;20227;-79
2024/03/18 08:54:03;;;;;;;17.03;15.70;;;10.70;99.90;;;;;;5001274;28;20659;-79
2024/03/18 08:56:29;;;;;;;13.83;12.47;;;10.70;99.90;;;;;;5001691;28;20212;-79
2024/03/18 08:58:56;;;;;;;15.23;14.20;;;10.70;99.90;;;;;;5012123;28;20266;-78
2024/03/18 09:01:23;;;;;;;13.83;12.73;;;10.70;99.90;;;;;;4999560;28;20725;-79
2024/03/18 09:03:51;;;;;;;17.07;15.67;;;10.70;99.90;;;;;;5006465;28;20214;-78
2024/03/18 09:06:19;;;;;;;15.83;14.73;;;10.70;99.90;;;;;;5008194;28;20218;-78
2024/03/18 09:08:46;;;;;;;16.60;15.50;;;10.70;99.90;;;;;;4997471;28;20203;-78
2024/03/18 09:11:13;;;;;;;17.07;15.80;;;10.70;99.90;;;;;;4995956;28;20217;-77
2024/03/18 09:13:41;;;;;;;15.37;14.37;;;10.80;99.90;;;;;;4993658;28;20200;-79
2024/03/18 09:16:07;;;;;;;14.13;13.13;;;10.80;99.90;;;;;;4995906;28;20199;-78
2024/03/18 09:18:34;;;;;;;15.73;14.73;;;10.80;99.90;;;;;;5010956;28;20223;-78
2024/03/18 09:21:01;;;;;;;16.23;15.13;;;10.80;99.90;;;;;;4998778;28;20227;-78
2024/03/18 09:23:29;;;;;;;15.80;14.80;;;10.90;99.90;;;;;;5003927;28;20211;-79
2024/03/18 09:25:56;;;;;;;16.33;15.13;;;10.80;99.90;;;;;;5002082;28;20212;-78
2024/03/18 09:28:23;;;;;;;15.03;14.00;;;10.80;99.90;;;;;;5004703;28;20678;-80
2024/03/18 09:30:59;;;;;;;15.60;14.37;;;10.80;99.90;;;;;;4999450;28;20203;-79
2024/03/18 09:33:26;;;;;;;15.57;14.57;;;10.80;99.90;;;;;;4995158;28;20216;-79
2024/03/18 09:35:53;;;;;;;15.90;14.80;;;10.90;99.90;;;;;;4999509;28;20542;-79
2024/03/18 09:38:20;;;;;;;15.50;14.43;;;10.90;99.90;;;;;;4994703;28;20306;-79
2024/03/18 09:40:48;;;;;;;14.93;13.97;;;10.90;99.90;;;;;;4995999;28;20204;-79
2024/03/18 09:43:15;;;;;;;15.27;14.17;;;11.00;99.90;;;;;;4996869;28;20588;-78
2024/03/18 09:45:42;;;;;;;15.53;14.40;;;11.10;99.90;;;;;;4996573;28;20212;-78
2024/03/18 09:48:15;;;;;;;15.07;14.07;;;11.20;99.90;;;;;;5000665;28;20722;-78
2024/03/18 09:50:42;;;;;;;15.63;14.57;;;11.20;99.90;;;;;;5001611;28;20210;-78
2024/03/18 09:53:11;;;;;;;14.50;13.50;;;11.30;99.90;;;;;;5004473;28;20307;-77
2024/03/18 09:55:39;;;;;;;16.53;15.20;;;11.30;99.90;;;;;;5007200;28;20250;-78
2024/03/18 09:58:14;;;;;;;17.27;15.90;;;11.40;99.90;;;;;;5000505;28;20209;-79
2024/03/18 10:00:40;;;;;;;16.30;15.10;;;11.40;99.90;;;;;;5009248;28;20682;-79
2024/03/18 10:03:15;;;;;;;16.07;14.83;;;11.50;99.90;;;;;;5004099;28;20227;-78
2024/03/18 10:05:42;;;;;;;15.23;14.13;;;11.50;99.90;;;;;;4993003;28;20208;-79
2024/03/18 10:08:13;;;;;;;15.20;14.10;;;11.60;99.90;;;;;;4992633;28;20377;-78
2024/03/18 10:10:40;;;;;;;15.50;14.40;;;11.70;99.90;;;;;;5003096;28;20211;-79
2024/03/18 10:13:09;;;;;;;14.73;13.73;;;11.80;99.90;;;;;;4997603;28;20248;-78
2024/03/18 10:15:38;;;;;;;15.37;14.17;;;11.80;99.90;;;;;;5004656;28;20313;-79
2024/03/18 10:18:10;;;;;;;15.00;14.00;;;11.90;99.90;;;;;;5001819;28;20692;-78
2024/03/18 10:20:38;;;;;;;14.93;13.93;;;11.90;99.90;;;;;;4999431;28;20193;-78
2024/03/18 10:23:06;;;;;;;15.17;14.23;;;12.00;99.90;;;;;;5002642;28;20232;-78
2024/03/18 10:25:33;;;;;;;14.80;13.93;;;12.00;99.90;;;;;;5001195;28;20227;-78
2024/03/18 10:28:03;;;;;;;14.67;13.67;;;12.00;99.90;;;;;;5006696;28;20192;-79
2024/03/18 10:30:32;;;;;;;14.73;13.73;;;12.00;99.90;;;;;;4999147;28;20208;-79
2024/03/18 10:32:59;;;;;;;15.10;14.10;;;12.10;99.90;;;;;;4998520;28;20235;-79
2024/03/18 10:35:30;;;;;;;15.40;14.30;;;12.10;99.90;;;;;;5002322;28;20627;-79
2024/03/18 10:37:58;;;;;;;14.80;13.80;;;12.00;99.90;;;;;;4997731;28;20214;-78
2024/03/18 10:40:37;;;;;;;14.53;13.53;;;12.00;99.90;;;;;;4996004;28;20208;-78
2024/03/18 10:43:06;;;;;;;14.83;13.83;;;12.00;99.90;;;;;;4991094;28;20700;-79
2024/03/18 10:45:36;;;;;;;14.70;13.80;;;12.10;99.90;;;;;;4995387;28;20197;-79
2024/03/18 10:48:05;;;;;;;14.60;13.70;;;12.20;99.90;;;;;;5000001;28;20201;-79
2024/03/18 10:50:33;;;;;;;15.33;14.33;;;12.20;99.90;;;;;;4996798;28;20212;-79
2024/03/18 10:53:00;;;;;;;14.03;13.23;;;12.30;99.90;;;;;;4998546;28;20225;-79
2024/03/18 10:55:29;;;;;;;14.53;13.60;;;12.30;99.90;;;;;;5001177;28;20201;-79
2024/03/18 10:57:57;;;;;;;14.87;13.90;;;12.40;99.90;;;;;;5004910;28;20217;-78
2024/03/18 11:00:25;;;;;;;14.73;13.77;;;12.40;99.90;;;;;;4995367;28;20205;-78
2024/03/18 11:02:56;;;;;;;14.60;13.50;;;12.40;99.90;;;;;;5001341;28;20294;-79
2024/03/18 11:05:25;;;;;;;14.30;13.40;;;12.50;99.90;;;;;;4998540;28;20710;-78
2024/03/18 11:07:54;;;;;;;14.00;13.10;;;12.50;99.90;;;;;;5001436;28;20201;-79
2024/03/18 11:10:22;;;;;;;13.73;12.70;;;12.50;99.90;;;;;;4999375;28;20260;-79
2024/03/18 11:12:49;;;;;;;13.27;12.27;;;12.50;99.90;;;;;;4997216;28;20723;-78
2024/03/18 11:15:17;;;;;;;13.40;12.40;;;12.50;99.90;;;;;;4995321;28;20193;-78
2024/03/18 11:17:47;;;;;;;13.00;12.07;;;12.50;99.90;;;;;;5000369;28;20273;-79
2024/03/18 11:20:17;;;;;;;13.00;12.10;;;12.50;99.90;;;;;;5003495;28;20201;-79
2024/03/18 11:22:56;;;;;;;13.00;12.10;;;12.60;99.90;;;;;;5001737;28;20225;-79
2024/03/18 11:25:25;;;;;;;12.97;12.07;;;12.70;99.90;;;;;;5000522;28;20277;-78
2024/03/18 11:27:54;;;;;;;13.30;12.50;;;12.70;99.90;;;;;;5005174;28;20201;-81
2024/03/18 11:30:26;;;;;;;13.30;12.40;;;12.80;99.90;;;;;;5007899;28;20210;-81
2024/03/18 11:32:53;;;;;;;13.47;12.47;;;12.80;99.90;;;;;;5003139;28;20237;-79
2024/03/18 11:35:21;;;;;;;12.13;11.33;;;12.70;99.90;;;;;;5002056;28;20265;-80
2024/03/18 11:37:49;;;;;;;12.67;11.77;;;12.80;99.90;;;;;;5002433;28;20295;-78
2024/03/18 11:40:17;;;;;;;12.30;11.50;;;12.80;99.90;;;;;;5000889;28;20292;-78
2024/03/18 11:42:44;;;;;;;13.73;12.57;;;12.80;99.90;;;;;;4994232;28;20221;-78
2024/03/18 11:45:18;;;;;;;13.00;12.20;;;12.90;99.90;;;;;;4996010;28;20198;-78
2024/03/18 11:47:45;;;;;;;13.00;12.10;;;12.80;99.90;;;;;;4995342;28;20609;-78
2024/03/18 11:50:13;;;;;;;14.10;13.10;;;12.70;99.90;;;;;;4994618;28;20225;-79
2024/03/18 11:52:42;;;;;;;14.77;13.97;;;12.70;99.90;;;;;;5013050;28;20225;-78
2024/03/18 11:55:15;;;;;;;14.90;14.00;;;12.60;99.90;;;;;;4995902;28;20284;-78
2024/03/18 11:57:43;;;;;;;14.87;13.87;;;12.50;99.90;;;;;;4998993;28;20554;-78
2024/03/18 12:00:12;;;;;;;14.83;13.73;;;12.50;99.90;;;;;;4996762;28;20683;-78
2024/03/18 12:02:43;;;;;;;14.60;13.70;;;12.50;99.90;;;;;;4995552;28;20242;-79
2024/03/18 12:05:10;;;;;;;15.17;14.20;;;12.50;99.90;;;;;;4996091;28;20201;-78
2024/03/18 12:07:38;;;;;;;15.03;14.13;;;12.40;99.90;;;;;;4998861;28;20384;-77
2024/03/18 12:10:08;;;;;;;15.60;14.50;;;12.30;99.90;;;;;;5012069;28;20268;-77
2024/03/18 12:12:36;;;;;;;15.77;14.73;;;12.30;99.90;;;;;;5000257;28;20217;-78
2024/03/18 12:15:05;;;;;;;15.90;14.90;;;12.30;99.90;;;;;;4999843;28;20205;-77
2024/03/18 12:17:33;;;;;;;16.27;15.20;;;12.30;99.90;;;;;;4999535;28;20205;-77
2024/03/18 12:20:03;;;;;;;15.47;14.50;;;12.20;99.90;;;;;;5001063;28;20297;-77
2024/03/18 12:22:30;;;;;;;16.47;15.37;;;12.30;99.90;;;;;;5006069;28;20253;-77
2024/03/18 12:30:31;;;;;;;15.63;14.53;;;12.60;99.90;;;;;;5008678;28;20217;-77
2024/03/18 12:32:59;;;;;;;15.10;13.97;;;12.70;99.90;;;;;;5013710;28;20233;-77
2024/03/18 12:35:27;;;;;;;14.07;13.10;;;12.80;99.90;;;;;;5004080;28;20616;-77
2024/03/18 12:37:55;;;;;;;14.40;13.50;;;13.00;99.90;;;;;;5003564;28;20202;-78
2024/03/18 12:40:23;;;;;;;14.67;13.63;;;13.10;99.90;;;;;;5008451;28;20253;-79
2024/03/18 12:42:51;;;;;;;13.10;12.30;;;13.20;99.90;;;;;;5001767;28;20601;-78
2024/03/18 12:45:19;;;;;;;12.37;11.47;;;13.10;99.90;;;;;;5004193;28;20668;-80
2024/03/18 12:47:52;;;;;;;9.80;9.07;;;13.10;99.90;;;;;;5008419;28;20204;-78
2024/03/18 12:50:20;;;;;;;10.67;9.93;;;13.00;99.90;;;;;;5004816;28;20196;-78
2024/03/18 12:52:46;;;;;;;11.27;10.47;;;12.90;99.90;;;;;;5000855;28;20297;-77
2024/03/18 12:55:13;;;;;;;9.63;8.87;;;12.80;99.90;;;;;;4998401;28;20210;-78
2024/03/18 12:57:43;;;;;;;12.70;11.80;;;12.90;99.90;;;;;;4994857;28;20260;-78
2024/03/18 13:00:12;;;;;;;6.87;6.37;;;12.90;99.90;;;;;;5007363;28;20214;-80
2024/03/18 13:02:40;;;;;;;9.73;9.03;;;12.80;99.90;;;;;;5023387;28;20605;-79
2024/03/18 13:05:08;;;;;;;8.50;7.87;;;12.80;99.90;;;;;;5008477;28;20213;-80
2024/03/18 13:07:36;;;;;;;14.70;13.80;;;12.70;99.90;;;;;;4997137;28;20284;-81
2024/03/18 13:10:05;;;;;;;13.80;12.90;;;12.60;99.90;;;;;;4994988;28;20229;-80
2024/03/18 13:12:33;;;;;;;15.23;14.13;;;12.50;99.90;;;;;;4992703;28;20256;-79
2024/03/18 13:15:01;;;;;;;14.77;13.77;;;12.40;99.90;;;;;;4994893;28;20202;-79
2024/03/18 13:17:31;;;;;;;14.47;13.57;;;12.40;99.90;;;;;;5006931;28;20306;-79
2024/03/18 13:19:59;;;;;;;16.23;15.13;;;12.40;99.90;;;;;;5006169;28;20224;-79
2024/03/18 13:22:29;;;;;;;14.43;13.20;;;12.30;99.90;;;;;;4996313;28;20293;-79
2024/03/18 13:24:57;;;;;;;13.80;12.67;;;12.20;99.90;;;;;;4994940;28;20206;-80
2024/03/18 13:27:25;;;;;;;12.50;11.63;;;12.30;99.90;;;;;;4994418;28;20205;-78
2024/03/18 13:29:52;;;;;;;13.43;12.43;;;12.30;99.90;;;;;;5001446;28;20228;-79
2024/03/18 13:32:21;;;;;;;14.33;13.33;;;12.30;99.90;;;;;;4995011;28;20228;-81
2024/03/18 13:34:49;;;;;;;15.63;14.53;;;12.40;99.90;;;;;;5005547;28;20252;-81
2024/03/18 13:37:16;;;;;;;13.50;12.50;;;12.30;99.90;;;;;;5005622;28;20227;-81
2024/03/18 13:39:45;;;;;;;13.73;12.73;;;12.30;99.90;;;;;;5007737;28;20781;-81
2024/03/18 13:42:15;;;;;;;14.40;13.40;;;12.30;99.90;;;;;;5005953;28;20231;-80
2024/03/18 13:44:43;;;;;;;11.00;10.23;;;12.30;99.90;;;;;;4994272;28;20197;-81
2024/03/18 13:47:13;;;;;;;8.87;8.17;;;12.30;99.90;;;;;;4995390;28;20200;-81
2024/03/18 13:49:40;;;;;;;11.67;10.97;;;12.40;99.90;;;;;;5003104;28;20303;-80
2024/03/18 13:52:13;;;;;;;12.47;11.57;;;12.40;99.90;;;;;;5006045;28;20220;-81
2024/03/18 13:54:39;;;;;;;11.70;10.90;;;12.40;99.90;;;;;;5007883;28;20961;-81
2024/03/18 13:57:07;;;;;;;12.13;11.33;;;12.40;99.90;;;;;;5002295;28;20664;-81
2024/03/18 13:59:36;;;;;;;12.33;11.53;;;12.40;99.90;;;;;;5001566;28;20231;-82
2024/03/18 14:02:04;;;;;;;12.10;11.20;;;12.60;99.90;;;;;;5008260;28;20229;-81
2024/03/18 14:04:33;;;;;;;12.10;11.20;;;12.70;99.90;;;;;;4999175;28;20324;-81
2024/03/18 14:07:01;;;;;;;11.30;10.50;;;12.80;99.90;;;;;;4999802;28;20198;-81
2024/03/18 14:09:29;;;;;;;10.43;9.73;;;12.90;99.90;;;;;;5007089;28;20211;-81
2024/03/18 14:12:00;;;;;;;10.87;10.00;;;13.00;99.90;;;;;;5007440;28;20220;-79
2024/03/18 14:14:32;;;;;;;10.60;9.80;;;13.20;99.90;;;;;;5011675;28;20606;-81
2024/03/18 14:16:59;;;;;;;11.40;10.67;;;13.30;99.90;;;;;;5002999;28;20205;-81
2024/03/18 14:19:26;;;;;;;11.10;10.40;;;13.20;99.90;;;;;;5011500;28;20685;-81
2024/03/18 14:21:53;;;;;;;10.67;9.97;;;13.10;99.90;;;;;;5002501;28;20217;-81
2024/03/18 14:24:20;;;;;;;10.73;10.00;;;13.00;99.90;;;;;;4998077;28;20225;-81
2024/03/18 14:26:49;;;;;;;10.90;10.20;;;13.00;99.90;;;;;;5001241;28;20233;-81
2024/03/18 14:29:15;;;;;;;11.00;10.30;;;13.00;99.90;;;;;;4999262;28;20206;-81
2024/03/18 14:31:42;;;;;;;10.53;9.83;;;12.90;99.90;;;;;;5009685;28;20310;-81
2024/03/18 14:34:09;;;;;;;10.27;9.63;;;12.90;99.90;;;;;;4998839;28;20252;-81
2024/03/18 14:36:38;;;;;;;10.50;9.90;;;12.90;99.90;;;;;;5011658;28;20200;-81
2024/03/18 14:39:06;;;;;;;10.13;9.43;;;12.80;99.90;;;;;;5007034;28;20645;-81
2024/03/18 14:41:32;;;;;;;10.90;10.20;;;12.90;99.90;;;;;;5001272;28;20219;-79
2024/03/18 14:44:03;;;;;;;10.73;9.93;;;13.10;99.90;;;;;;4996594;28;20672;-80
2024/03/18 14:46:30;;;;;;;11.20;10.40;;;13.30;99.90;;;;;;5002019;28;20207;-79
2024/03/18 14:48:57;;;;;;;11.10;10.30;;;13.30;99.90;;;;;;4996279;28;20712;-80
2024/03/18 14:51:24;;;;;;;9.37;8.67;;;13.40;99.90;;;;;;4997675;28;20230;-80
2024/03/18 14:53:51;;;;;;;9.60;9.00;;;13.50;99.90;;;;;;5009722;28;20209;-79
2024/03/18 14:56:18;;;;;;;10.53;9.43;;;13.50;99.90;;;;;;5005852;28;20200;-80
2024/03/18 14:58:44;;;;;;;9.80;9.10;;;13.50;99.90;;;;;;5004920;28;20638;-80
2024/03/18 15:01:16;;;;;;;8.67;8.07;;;13.40;99.90;;;;;;5008721;28;20213;-85
2024/03/18 15:03:43;;;;;;;8.87;8.07;;;13.40;99.90;;;;;;5008637;28;20212;-81
2024/03/18 15:06:09;;;;;;;10.73;10.03;;;13.40;99.90;;;;;;5004362;28;20213;-82
2024/03/18 15:08:36;;;;;;;10.63;9.93;;;13.30;99.90;;;;;;5008729;28;20206;-81
2024/03/18 15:11:03;;;;;;;10.83;10.13;;;13.20;99.90;;;;;;5015786;28;20653;-80
2024/03/18 15:13:43;;;;;;;10.70;10.00;;;13.20;99.90;;;;;;5001365;28;20208;-80
2024/03/18 15:16:10;;;;;;;10.90;10.10;;;13.20;99.90;;;;;;5002428;28;20256;-80
2024/03/18 15:18:38;;;;;;;11.13;10.43;;;13.10;99.90;;;;;;5004774;28;20198;-80
2024/03/18 15:21:06;;;;;;;12.40;11.50;;;13.10;99.90;;;;;;4999063;28;20277;-81
2024/03/18 15:29:14;;;;;;;14.00;13.00;;;13.00;99.90;;;;;;4960527;28;20194;-78
2024/03/18 15:31:41;;;;;;;13.37;12.47;;;13.00;99.90;;;;;;5008139;28;20276;-79
2024/03/18 15:34:10;;;;;;;13.37;12.43;;;13.00;99.90;;;;;;5000705;28;20203;-78
2024/03/18 15:36:38;;;;;;;13.50;12.50;;;13.00;99.90;;;;;;5008427;28;20614;-81
2024/03/18 15:39:07;;;;;;;13.13;12.23;;;12.90;99.90;;;;;;5004834;28;20205;-81
2024/03/18 15:41:34;;;;;;;13.00;12.10;;;12.90;99.90;;;;;;5005011;28;20221;-81
2024/03/18 15:44:01;;;;;;;12.17;11.37;;;12.90;99.90;;;;;;5005789;28;20223;-81
2024/03/18 15:46:28;;;;;;;12.00;11.23;;;12.90;99.90;;;;;;5010562;28;20265;-81
2024/03/18 15:48:54;;;;;;;12.63;11.73;;;13.00;99.90;;;;;;4995711;28;20205;-81
2024/03/18 15:51:23;;;;;;;12.87;12.03;;;13.00;99.90;;;;;;5012934;28;20227;-79
2024/03/18 15:53:50;;;;;;;12.80;12.00;;;13.00;99.90;;;;;;5015867;28;20201;-80
2024/03/18 15:56:17;;;;;;;13.30;12.40;;;13.00;99.90;;;;;;5012055;28;20680;-81
2024/03/18 15:58:44;;;;;;;12.87;11.97;;;13.00;99.90;;;;;;5007254;28;20221;-82
2024/03/18 16:01:12;;;;;;;12.70;11.90;;;13.10;99.90;;;;;;5001406;28;20241;-82
2024/03/18 16:03:39;;;;;;;13.67;12.67;;;13.10;99.90;;;;;;5009432;28;20206;-82
2024/03/18 16:06:07;;;;;;;13.10;12.10;;;13.10;99.90;;;;;;5008222;28;20205;-82
2024/03/18 16:08:36;;;;;;;13.73;12.73;;;13.10;99.90;;;;;;5006678;28;20194;-82
2024/03/18 16:11:07;;;;;;;13.43;12.53;;;13.10;99.90;;;;;;5009206;28;20194;-82
2024/03/18 16:13:35;;;;;;;13.80;12.77;;;13.00;99.90;;;;;;5015912;28;20679;-82
2024/03/18 16:16:02;;;;;;;14.77;13.67;;;13.00;99.90;;;;;;5009835;28;20243;-81
2024/03/18 16:18:29;;;;;;;14.40;13.50;;;13.00;99.90;;;;;;5005770;28;20237;-81
2024/03/18 16:20:56;;;;;;;14.70;13.67;;;12.90;99.90;;;;;;5002623;28;20230;-82
2024/03/18 16:23:25;;;;;;;14.23;13.27;;;12.90;99.90;;;;;;5004685;28;20207;-82
2024/03/18 16:25:53;;;;;;;14.80;13.73;;;12.80;99.90;;;;;;5003999;28;20580;-81
2024/03/18 16:28:20;;;;;;;14.50;13.50;;;12.80;99.90;;;;;;5001859;28;20568;-81
2024/03/18 16:30:47;;;;;;;14.90;13.90;;;12.70;99.90;;;;;;4998413;28;20256;-81
2024/03/18 16:33:14;;;;;;;11.40;10.27;;;12.70;99.90;;;;;;4995340;28;20233;-82
2024/03/18 16:35:41;;;;;;;8.53;7.83;;;12.60;99.90;;;;;;5010655;28;20680;-81